sensor_id;sensor_type;location;lat;lon;timestamp;temperature;humidity
66422;DHT22;53228;51.380;0.098;2024-01-11T00:00:42;4.60;99.90
66422;DHT22;53228;51.380;0.098;2024-01-11T00:03:10;4.70;99.90
66422;DHT22;53228;51.380;0.098;2024-01-11T00:05:38;4.70;99.90
66422;DHT22;53228;51.380;0.098;2024-01-11T00:08:06;4.70;99.90
66422;DHT22;53228;51.380;0.098;2024-01-11T00:10:34;4.70;99.90
66422;DHT22;53228;51.380;0.098;2024-01-11T00:13:01;4.70;99.90
66422;DHT22;53228;51.380;0.098;2024-01-11T00:15:29;4.70;99.90
66422;DHT22;53228;51.380;0.098;2024-01-11T00:17:57;4.60;99.90
66422;DHT22;53228;51.380;0.098;2024-01-11T00:20:25;4.60;99.90
66422;DHT22;53228;51.380;0.098;2024-01-11T00:22:53;4.80;99.90
66422;DHT22;53228;51.380;0.098;2024-01-11T00:25:23;4.50;99.90
66422;DHT22;53228;51.380;0.098;2024-01-11T00:27:50;4.50;99.90
66422;DHT22;53228;51.380;0.098;2024-01-11T00:30:18;4.50;99.90
66422;DHT22;53228;51.380;0.098;2024-01-11T00:32:46;4.50;99.90
66422;DHT22;53228;51.380;0.098;2024-01-11T00:35:14;4.40;99.90
66422;DHT22;53228;51.380;0.098;2024-01-11T00:37:42;4.40;99.90
66422;DHT22;53228;51.380;0.098;2024-01-11T00:40:10;4.40;99.90
66422;DHT22;53228;51.380;0.098;2024-01-11T00:42:37;4.40;99.90
66422;DHT22;53228;51.380;0.098;2024-01-11T00:45:05;4.40;99.90
66422;DHT22;53228;51.380;0.098;2024-01-11T00:47:34;4.40;99.90
66422;DHT22;53228;51.380;0.098;2024-01-11T00:50:01;4.40;99.90
66422;DHT22;53228;51.380;0.098;2024-01-11T00:52:29;4.40;99.90
66422;DHT22;53228;51.380;0.098;2024-01-11T00:54:57;4.40;99.90
66422;DHT22;53228;51.380;0.098;2024-01-11T00:57:25;4.40;99.90
66422;DHT22;53228;51.380;0.098;2024-01-11T00:59:52;4.40;99.90
66422;DHT22;53228;51.380;0.098;2024-01-11T01:02:20;4.40;99.90
66422;DHT22;53228;51.380;0.098;2024-01-11T01:04:48;4.40;99.90
66422;DHT22;53228;51.380;0.098;2024-01-11T01:07:16;4.40;99.90
66422;DHT22;53228;51.380;0.098;2024-01-11T01:09:43;4.30;99.90
66422;DHT22;53228;51.380;0.098;2024-01-11T01:12:11;4.30;99.90
66422;DHT22;53228;51.380;0.098;2024-01-11T01:14:39;4.30;99.90
66422;DHT22;53228;51.380;0.098;2024-01-11T01:17:06;4.30;99.90
66422;DHT22;53228;51.380;0.098;2024-01-11T01:19:34;4.30;99.90
66422;DHT22;53228;51.380;0.098;2024-01-11T01:22:02;4.20;99.90
66422;DHT22;53228;51.380;0.098;2024-01-11T01:24:31;4.10;99.90
66422;DHT22;53228;51.380;0.098;2024-01-11T01:26:59;4.10;99.90
66422;DHT22;53228;51.380;0.098;2024-01-11T01:29:27;4.10;99.90
66422;DHT22;53228;51.380;0.098;2024-01-11T01:31:55;4.10;99.90
66422;DHT22;53228;51.380;0.098;2024-01-11T01:34:23;4.00;99.90
66422;DHT22;53228;51.380;0.098;2024-01-11T01:36:51;4.00;99.90
66422;DHT22;53228;51.380;0.098;2024-01-11T01:39:19;3.90;99.90
66422;DHT22;53228;51.380;0.098;2024-01-11T01:41:46;3.90;99.90
66422;DHT22;53228;51.380;0.098;2024-01-11T01:44:14;3.90;99.90
66422;DHT22;53228;51.380;0.098;2024-01-11T01:46:42;3.80;99.90
66422;DHT22;53228;51.380;0.098;2024-01-11T01:49:10;3.80;99.90
66422;DHT22;53228;51.380;0.098;2024-01-11T01:51:38;3.90;99.90
66422;DHT22;53228;51.380;0.098;2024-01-11T01:54:06;3.90;99.90
66422;DHT22;53228;51.380;0.098;2024-01-11T01:56:34;3.90;99.90
66422;DHT22;53228;51.380;0.098;2024-01-11T01:59:03;3.90;99.90
66422;DHT22;53228;51.380;0.098;2024-01-11T02:01:31;4.00;99.90
66422;DHT22;53228;51.380;0.098;2024-01-11T02:03:59;4.00;99.90
66422;DHT22;53228;51.380;0.098;2024-01-11T02:06:28;4.00;99.90
66422;DHT22;53228;51.380;0.098;2024-01-11T02:09:00;4.10;99.90
66422;DHT22;53228;51.380;0.098;2024-01-11T02:11:30;4.10;99.90
66422;DHT22;53228;51.380;0.098;2024-01-11T02:13:58;4.10;99.90
66422;DHT22;53228;51.380;0.098;2024-01-11T02:16:26;4.10;99.90
66422;DHT22;53228;51.380;0.098;2024-01-11T02:18:54;4.20;99.90
66422;DHT22;53228;51.380;0.098;2024-01-11T02:21:23;4.20;99.90
66422;DHT22;53228;51.380;0.098;2024-01-11T02:26:22;4.20;99.90
66422;DHT22;53228;51.380;0.098;2024-01-11T02:28:50;4.30;99.90
66422;DHT22;53228;51.380;0.098;2024-01-11T02:31:18;4.30;99.90
66422;DHT22;53228;51.380;0.098;2024-01-11T02:33:45;4.30;99.90
66422;DHT22;53228;51.380;0.098;2024-01-11T02:36:13;4.20;99.90
66422;DHT22;53228;51.380;0.098;2024-01-11T02:38:42;4.20;99.90
66422;DHT22;53228;51.380;0.098;2024-01-11T02:41:11;4.20;99.90
66422;DHT22;53228;51.380;0.098;2024-01-11T02:43:39;4.10;99.90
66422;DHT22;53228;51.380;0.098;2024-01-11T02:46:07;4.10;99.90
66422;DHT22;53228;51.380;0.098;2024-01-11T02:48:34;4.10;99.90
66422;DHT22;53228;51.380;0.098;2024-01-11T02:51:02;4.10;99.90
66422;DHT22;53228;51.380;0.098;2024-01-11T02:53:30;4.10;99.90
66422;DHT22;53228;51.380;0.098;2024-01-11T02:56:02;4.10;99.90
66422;DHT22;53228;51.380;0.098;2024-01-11T02:58:30;4.00;99.90
66422;DHT22;53228;51.380;0.098;2024-01-11T03:00:58;4.00;99.90
66422;DHT22;53228;51.380;0.098;2024-01-11T03:03:26;3.90;99.90
66422;DHT22;53228;51.380;0.098;2024-01-11T03:05:53;3.90;99.90
66422;DHT22;53228;51.380;0.098;2024-01-11T03:08:21;3.80;99.90
66422;DHT22;53228;51.380;0.098;2024-01-11T03:10:49;3.80;99.90
66422;DHT22;53228;51.380;0.098;2024-01-11T03:13:17;3.70;99.90
66422;DHT22;53228;51.380;0.098;2024-01-11T03:15:45;3.70;99.90
66422;DHT22;53228;51.380;0.098;2024-01-11T03:18:13;3.70;99.90
66422;DHT22;53228;51.380;0.098;2024-01-11T03:20:41;3.70;99.90
66422;DHT22;53228;51.380;0.098;2024-01-11T03:23:08;3.60;99.90
66422;DHT22;53228;51.380;0.098;2024-01-11T03:25:36;3.70;99.90
66422;DHT22;53228;51.380;0.098;2024-01-11T03:28:04;3.70;99.90
66422;DHT22;53228;51.380;0.098;2024-01-11T03:30:32;3.70;99.90
66422;DHT22;53228;51.380;0.098;2024-01-11T03:33:00;3.60;99.90
66422;DHT22;53228;51.380;0.098;2024-01-11T03:35:28;3.60;99.90
66422;DHT22;53228;51.380;0.098;2024-01-11T03:37:55;3.60;99.90
66422;DHT22;53228;51.380;0.098;2024-01-11T03:40:23;3.60;99.90
66422;DHT22;53228;51.380;0.098;2024-01-11T03:42:50;3.50;99.90
66422;DHT22;53228;51.380;0.098;2024-01-11T03:45:18;3.60;99.90
66422;DHT22;53228;51.380;0.098;2024-01-11T03:47:46;3.50;99.90
66422;DHT22;53228;51.380;0.098;2024-01-11T03:50:14;3.60;99.90
66422;DHT22;53228;51.380;0.098;2024-01-11T03:52:42;3.50;99.90
66422;DHT22;53228;51.380;0.098;2024-01-11T03:55:10;3.50;99.90
66422;DHT22;53228;51.380;0.098;2024-01-11T03:57:37;3.60;99.90
66422;DHT22;53228;51.380;0.098;2024-01-11T04:00:06;3.50;99.90
66422;DHT22;53228;51.380;0.098;2024-01-11T04:02:38;3.60;99.90
66422;DHT22;53228;51.380;0.098;2024-01-11T04:05:06;3.60;99.90
66422;DHT22;53228;51.380;0.098;2024-01-11T04:07:33;3.60;99.90
66422;DHT22;53228;51.380;0.098;2024-01-11T04:10:01;3.60;99.90
66422;DHT22;53228;51.380;0.098;2024-01-11T04:12:29;3.60;99.90
66422;DHT22;53228;51.380;0.098;2024-01-11T04:14:56;3.60;99.90
66422;DHT22;53228;51.380;0.098;2024-01-11T04:17:24;3.70;99.90
66422;DHT22;53228;51.380;0.098;2024-01-11T04:19:52;3.70;99.90
66422;DHT22;53228;51.380;0.098;2024-01-11T04:22:20;3.70;99.90
66422;DHT22;53228;51.380;0.098;2024-01-11T04:24:47;3.70;99.90
66422;DHT22;53228;51.380;0.098;2024-01-11T04:27:15;3.80;99.90
66422;DHT22;53228;51.380;0.098;2024-01-11T04:29:43;3.80;99.90
66422;DHT22;53228;51.380;0.098;2024-01-11T04:32:11;3.80;99.90
66422;DHT22;53228;51.380;0.098;2024-01-11T04:34:38;3.80;99.90
66422;DHT22;53228;51.380;0.098;2024-01-11T04:37:07;3.80;99.90
66422;DHT22;53228;51.380;0.098;2024-01-11T04:39:35;3.80;99.90
66422;DHT22;53228;51.380;0.098;2024-01-11T04:42:02;3.80;99.90
66422;DHT22;53228;51.380;0.098;2024-01-11T04:46:58;3.80;99.90
66422;DHT22;53228;51.380;0.098;2024-01-11T04:49:26;3.80;99.90
66422;DHT22;53228;51.380;0.098;2024-01-11T04:51:54;3.70;99.90
66422;DHT22;53228;51.380;0.098;2024-01-11T04:54:21;3.70;99.90
66422;DHT22;53228;51.380;0.098;2024-01-11T04:56:49;3.80;99.90
66422;DHT22;53228;51.380;0.098;2024-01-11T04:59:17;3.80;99.90
66422;DHT22;53228;51.380;0.098;2024-01-11T05:01:46;3.80;99.90
66422;DHT22;53228;51.380;0.098;2024-01-11T05:04:14;3.80;99.90
66422;DHT22;53228;51.380;0.098;2024-01-11T05:06:41;3.70;99.90
66422;DHT22;53228;51.380;0.098;2024-01-11T05:09:10;3.80;99.90
66422;DHT22;53228;51.380;0.098;2024-01-11T05:11:37;3.70;99.90
66422;DHT22;53228;51.380;0.098;2024-01-11T05:14:05;3.70;99.90
66422;DHT22;53228;51.380;0.098;2024-01-11T05:16:33;3.70;99.90
66422;DHT22;53228;51.380;0.098;2024-01-11T05:19:02;3.70;99.90
66422;DHT22;53228;51.380;0.098;2024-01-11T05:21:30;3.80;99.90
66422;DHT22;53228;51.380;0.098;2024-01-11T05:23:58;3.80;99.90
66422;DHT22;53228;51.380;0.098;2024-01-11T05:26:25;3.80;99.90
66422;DHT22;53228;51.380;0.098;2024-01-11T05:28:53;3.80;99.90
66422;DHT22;53228;51.380;0.098;2024-01-11T05:31:21;3.80;99.90
66422;DHT22;53228;51.380;0.098;2024-01-11T05:33:49;3.90;99.90
66422;DHT22;53228;51.380;0.098;2024-01-11T05:36:17;3.90;99.90
66422;DHT22;53228;51.380;0.098;2024-01-11T05:38:45;3.90;99.90
66422;DHT22;53228;51.380;0.098;2024-01-11T05:41:13;4.00;99.90
66422;DHT22;53228;51.380;0.098;2024-01-11T05:43:41;4.00;99.90
66422;DHT22;53228;51.380;0.098;2024-01-11T05:46:10;4.00;99.90
66422;DHT22;53228;51.380;0.098;2024-01-11T05:48:37;3.90;99.90
66422;DHT22;53228;51.380;0.098;2024-01-11T05:51:05;3.90;99.90
66422;DHT22;53228;51.380;0.098;2024-01-11T05:53:33;3.90;99.90
66422;DHT22;53228;51.380;0.098;2024-01-11T05:56:10;3.90;99.90
66422;DHT22;53228;51.380;0.098;2024-01-11T05:58:39;3.90;99.90
66422;DHT22;53228;51.380;0.098;2024-01-11T06:01:07;3.80;99.90
66422;DHT22;53228;51.380;0.098;2024-01-11T06:03:35;3.80;99.90
66422;DHT22;53228;51.380;0.098;2024-01-11T06:06:04;3.80;99.90
66422;DHT22;53228;51.380;0.098;2024-01-11T06:08:32;3.70;99.90
66422;DHT22;53228;51.380;0.098;2024-01-11T06:11:00;3.70;99.90
66422;DHT22;53228;51.380;0.098;2024-01-11T06:13:28;3.60;99.90
66422;DHT22;53228;51.380;0.098;2024-01-11T06:15:56;3.70;99.90
66422;DHT22;53228;51.380;0.098;2024-01-11T06:18:23;3.70;99.90
66422;DHT22;53228;51.380;0.098;2024-01-11T06:20:51;4.30;99.90
66422;DHT22;53228;51.380;0.098;2024-01-11T06:23:19;3.60;99.90
66422;DHT22;53228;51.380;0.098;2024-01-11T06:25:47;3.60;99.90
66422;DHT22;53228;51.380;0.098;2024-01-11T06:28:15;3.60;99.90
66422;DHT22;53228;51.380;0.098;2024-01-11T06:30:42;3.60;99.90
66422;DHT22;53228;51.380;0.098;2024-01-11T06:33:11;3.60;99.90
66422;DHT22;53228;51.380;0.098;2024-01-11T06:35:39;3.60;99.90
66422;DHT22;53228;51.380;0.098;2024-01-11T06:38:07;3.60;99.90
66422;DHT22;53228;51.380;0.098;2024-01-11T06:40:35;3.60;99.90
66422;DHT22;53228;51.380;0.098;2024-01-11T06:43:03;3.60;99.90
66422;DHT22;53228;51.380;0.098;2024-01-11T06:45:31;3.50;99.90
66422;DHT22;53228;51.380;0.098;2024-01-11T06:47:58;3.50;99.90
66422;DHT22;53228;51.380;0.098;2024-01-11T06:50:26;3.50;99.90
66422;DHT22;53228;51.380;0.098;2024-01-11T06:52:54;3.70;99.90
66422;DHT22;53228;51.380;0.098;2024-01-11T06:55:22;3.40;99.90
66422;DHT22;53228;51.380;0.098;2024-01-11T06:57:50;3.50;99.90
66422;DHT22;53228;51.380;0.098;2024-01-11T07:00:18;3.50;99.90
66422;DHT22;53228;51.380;0.098;2024-01-11T07:02:45;3.60;99.90
66422;DHT22;53228;51.380;0.098;2024-01-11T07:05:13;3.60;99.90
66422;DHT22;53228;51.380;0.098;2024-01-11T07:07:41;3.60;99.90
66422;DHT22;53228;51.380;0.098;2024-01-11T07:10:09;3.70;99.90
66422;DHT22;53228;51.380;0.098;2024-01-11T07:12:37;3.70;99.90
66422;DHT22;53228;51.380;0.098;2024-01-11T07:15:05;3.70;99.90
66422;DHT22;53228;51.380;0.098;2024-01-11T07:17:35;3.80;99.90
66422;DHT22;53228;51.380;0.098;2024-01-11T07:20:04;3.80;99.90
66422;DHT22;53228;51.380;0.098;2024-01-11T07:22:32;3.80;99.90
66422;DHT22;53228;51.380;0.098;2024-01-11T07:24:59;3.90;99.90
66422;DHT22;53228;51.380;0.098;2024-01-11T07:27:27;3.90;99.90
66422;DHT22;53228;51.380;0.098;2024-01-11T07:29:55;3.90;99.90
66422;DHT22;53228;51.380;0.098;2024-01-11T07:32:22;3.90;99.90
66422;DHT22;53228;51.380;0.098;2024-01-11T07:34:50;4.00;99.90
66422;DHT22;53228;51.380;0.098;2024-01-11T07:37:18;3.90;99.90
66422;DHT22;53228;51.380;0.098;2024-01-11T07:39:46;4.00;99.90
66422;DHT22;53228;51.380;0.098;2024-01-11T07:42:14;4.00;99.90
66422;DHT22;53228;51.380;0.098;2024-01-11T07:44:43;4.00;99.90
66422;DHT22;53228;51.380;0.098;2024-01-11T07:47:11;4.10;99.90
66422;DHT22;53228;51.380;0.098;2024-01-11T07:49:39;4.10;99.90
66422;DHT22;53228;51.380;0.098;2024-01-11T07:52:06;4.10;99.90
66422;DHT22;53228;51.380;0.098;2024-01-11T07:54:34;4.10;99.90
66422;DHT22;53228;51.380;0.098;2024-01-11T07:57:02;4.20;99.90
66422;DHT22;53228;51.380;0.098;2024-01-11T07:59:33;4.20;99.90
66422;DHT22;53228;51.380;0.098;2024-01-11T08:02:03;4.20;99.90
66422;DHT22;53228;51.380;0.098;2024-01-11T08:04:32;4.20;99.90
66422;DHT22;53228;51.380;0.098;2024-01-11T08:06:59;4.30;99.90
66422;DHT22;53228;51.380;0.098;2024-01-11T08:09:27;4.30;99.90
66422;DHT22;53228;51.380;0.098;2024-01-11T08:11:55;4.30;99.90
66422;DHT22;53228;51.380;0.098;2024-01-11T08:14:24;4.30;99.90
66422;DHT22;53228;51.380;0.098;2024-01-11T08:16:52;4.30;99.90
66422;DHT22;53228;51.380;0.098;2024-01-11T08:19:21;4.40;99.90
66422;DHT22;53228;51.380;0.098;2024-01-11T08:21:49;4.40;99.90
66422;DHT22;53228;51.380;0.098;2024-01-11T08:24:17;4.40;99.90
66422;DHT22;53228;51.380;0.098;2024-01-11T08:26:45;4.40;99.90
66422;DHT22;53228;51.380;0.098;2024-01-11T08:29:13;4.40;99.90
66422;DHT22;53228;51.380;0.098;2024-01-11T08:31:41;4.40;99.90
66422;DHT22;53228;51.380;0.098;2024-01-11T08:34:11;3.90;99.90
66422;DHT22;53228;51.380;0.098;2024-01-11T08:36:39;4.40;99.90
66422;DHT22;53228;51.380;0.098;2024-01-11T08:39:07;4.50;99.90
66422;DHT22;53228;51.380;0.098;2024-01-11T08:41:35;4.40;99.90
66422;DHT22;53228;51.380;0.098;2024-01-11T08:44:05;4.50;99.90
66422;DHT22;53228;51.380;0.098;2024-01-11T08:46:33;4.50;99.90
66422;DHT22;53228;51.380;0.098;2024-01-11T08:49:02;4.50;99.90
66422;DHT22;53228;51.380;0.098;2024-01-11T08:51:31;4.60;99.90
66422;DHT22;53228;51.380;0.098;2024-01-11T08:54:01;4.60;99.90
66422;DHT22;53228;51.380;0.098;2024-01-11T08:56:29;4.60;99.90
66422;DHT22;53228;51.380;0.098;2024-01-11T08:58:57;4.60;99.90
66422;DHT22;53228;51.380;0.098;2024-01-11T09:01:26;4.60;99.90
66422;DHT22;53228;51.380;0.098;2024-01-11T09:03:54;4.60;99.90
66422;DHT22;53228;51.380;0.098;2024-01-11T09:06:22;4.70;99.90
66422;DHT22;53228;51.380;0.098;2024-01-11T09:08:49;4.70;99.90
66422;DHT22;53228;51.380;0.098;2024-01-11T09:11:17;4.70;99.90
66422;DHT22;53228;51.380;0.098;2024-01-11T09:13:45;4.80;99.90
66422;DHT22;53228;51.380;0.098;2024-01-11T09:16:16;4.80;99.90
66422;DHT22;53228;51.380;0.098;2024-01-11T09:18:45;4.80;99.90
66422;DHT22;53228;51.380;0.098;2024-01-11T09:21:13;4.90;99.90
66422;DHT22;53228;51.380;0.098;2024-01-11T09:23:40;4.90;99.90
66422;DHT22;53228;51.380;0.098;2024-01-11T09:26:08;4.90;99.90
66422;DHT22;53228;51.380;0.098;2024-01-11T09:28:36;5.00;99.90
66422;DHT22;53228;51.380;0.098;2024-01-11T09:31:04;5.00;99.90
66422;DHT22;53228;51.380;0.098;2024-01-11T09:33:32;5.00;99.90
66422;DHT22;53228;51.380;0.098;2024-01-11T09:35:59;5.10;99.90
66422;DHT22;53228;51.380;0.098;2024-01-11T09:38:27;5.20;99.90
66422;DHT22;53228;51.380;0.098;2024-01-11T09:41:15;4.50;99.90
66422;DHT22;53228;51.380;0.098;2024-01-11T09:43:44;5.20;99.90
66422;DHT22;53228;51.380;0.098;2024-01-11T09:46:13;5.30;99.90
66422;DHT22;53228;51.380;0.098;2024-01-11T09:48:43;5.30;99.90
66422;DHT22;53228;51.380;0.098;2024-01-11T09:51:12;5.30;99.90
66422;DHT22;53228;51.380;0.098;2024-01-11T09:53:40;5.40;99.90
66422;DHT22;53228;51.380;0.098;2024-01-11T09:56:10;5.40;99.90
66422;DHT22;53228;51.380;0.098;2024-01-11T09:58:41;5.50;99.90
66422;DHT22;53228;51.380;0.098;2024-01-11T10:01:12;5.50;99.90
66422;DHT22;53228;51.380;0.098;2024-01-11T10:03:41;5.50;99.90
66422;DHT22;53228;51.380;0.098;2024-01-11T10:06:10;5.50;99.90
66422;DHT22;53228;51.380;0.098;2024-01-11T10:08:37;6.80;99.90
66422;DHT22;53228;51.380;0.098;2024-01-11T10:11:05;5.50;99.90
66422;DHT22;53228;51.380;0.098;2024-01-11T10:13:33;5.60;99.90
66422;DHT22;53228;51.380;0.098;2024-01-11T10:16:06;5.50;99.90
66422;DHT22;53228;51.380;0.098;2024-01-11T10:18:36;5.50;99.90
66422;DHT22;53228;51.380;0.098;2024-01-11T10:21:04;5.50;99.90
66422;DHT22;53228;51.380;0.098;2024-01-11T10:23:34;5.50;99.90
66422;DHT22;53228;51.380;0.098;2024-01-11T10:26:02;5.50;99.90
66422;DHT22;53228;51.380;0.098;2024-01-11T10:28:30;5.50;99.90
66422;DHT22;53228;51.380;0.098;2024-01-11T10:30:58;5.50;99.90
66422;DHT22;53228;51.380;0.098;2024-01-11T10:33:25;5.50;99.90
66422;DHT22;53228;51.380;0.098;2024-01-11T10:35:54;5.60;99.90
66422;DHT22;53228;51.380;0.098;2024-01-11T10:38:22;5.60;99.90
66422;DHT22;53228;51.380;0.098;2024-01-11T10:40:54;5.70;99.90
66422;DHT22;53228;51.380;0.098;2024-01-11T10:43:23;5.80;99.90
66422;DHT22;53228;51.380;0.098;2024-01-11T10:45:52;5.80;99.90
66422;DHT22;53228;51.380;0.098;2024-01-11T10:48:25;5.90;99.90
66422;DHT22;53228;51.380;0.098;2024-01-11T10:50:58;5.90;99.90
66422;DHT22;53228;51.380;0.098;2024-01-11T10:53:42;5.90;99.90
66422;DHT22;53228;51.380;0.098;2024-01-11T10:56:15;6.00;99.90
66422;DHT22;53228;51.380;0.098;2024-01-11T10:58:47;6.00;99.90
66422;DHT22;53228;51.380;0.098;2024-01-11T11:01:16;6.10;99.90
66422;DHT22;53228;51.380;0.098;2024-01-11T11:03:46;6.10;99.90
66422;DHT22;53228;51.380;0.098;2024-01-11T11:06:18;6.10;99.90
66422;DHT22;53228;51.380;0.098;2024-01-11T11:08:49;6.20;99.90
66422;DHT22;53228;51.380;0.098;2024-01-11T11:11:18;6.20;99.90
66422;DHT22;53228;51.380;0.098;2024-01-11T11:13:47;6.20;99.90
66422;DHT22;53228;51.380;0.098;2024-01-11T11:16:16;6.30;99.90
66422;DHT22;53228;51.380;0.098;2024-01-11T11:18:44;6.40;99.90
66422;DHT22;53228;51.380;0.098;2024-01-11T11:21:12;6.40;99.90
66422;DHT22;53228;51.380;0.098;2024-01-11T11:23:40;6.40;99.90
66422;DHT22;53228;51.380;0.098;2024-01-11T11:26:14;6.40;99.90
66422;DHT22;53228;51.380;0.098;2024-01-11T11:28:44;6.40;99.90
66422;DHT22;53228;51.380;0.098;2024-01-11T11:34:04;6.60;99.90
66422;DHT22;53228;51.380;0.098;2024-01-11T11:36:33;6.60;99.90
66422;DHT22;53228;51.380;0.098;2024-01-11T11:39:02;6.70;99.90
66422;DHT22;53228;51.380;0.098;2024-01-11T11:41:31;6.70;99.90
66422;DHT22;53228;51.380;0.098;2024-01-11T11:44:02;6.80;99.90
66422;DHT22;53228;51.380;0.098;2024-01-11T11:46:32;6.80;99.90
66422;DHT22;53228;51.380;0.098;2024-01-11T11:49:00;6.90;99.90
66422;DHT22;53228;51.380;0.098;2024-01-11T11:51:28;6.90;99.90
66422;DHT22;53228;51.380;0.098;2024-01-11T11:53:57;6.90;99.90
66422;DHT22;53228;51.380;0.098;2024-01-11T11:56:25;7.10;99.90
66422;DHT22;53228;51.380;0.098;2024-01-11T11:58:53;6.90;99.90
66422;DHT22;53228;51.380;0.098;2024-01-11T12:01:23;6.80;99.90
66422;DHT22;53228;51.380;0.098;2024-01-11T12:03:52;6.80;99.90
66422;DHT22;53228;51.380;0.098;2024-01-11T12:06:21;6.70;99.90
66422;DHT22;53228;51.380;0.098;2024-01-11T12:08:53;7.50;99.90
66422;DHT22;53228;51.380;0.098;2024-01-11T12:11:24;6.60;99.90
66422;DHT22;53228;51.380;0.098;2024-01-11T12:13:54;6.60;99.90
66422;DHT22;53228;51.380;0.098;2024-01-11T12:16:23;6.60;99.90
66422;DHT22;53228;51.380;0.098;2024-01-11T12:18:51;6.70;99.90
66422;DHT22;53228;51.380;0.098;2024-01-11T12:21:19;6.70;99.90
66422;DHT22;53228;51.380;0.098;2024-01-11T12:23:47;6.70;99.90
66422;DHT22;53228;51.380;0.098;2024-01-11T12:26:16;6.70;99.90
66422;DHT22;53228;51.380;0.098;2024-01-11T12:28:51;6.70;99.90
66422;DHT22;53228;51.380;0.098;2024-01-11T12:31:20;6.70;99.90
66422;DHT22;53228;51.380;0.098;2024-01-11T12:33:49;6.70;99.90
66422;DHT22;53228;51.380;0.098;2024-01-11T12:36:17;6.80;99.90
66422;DHT22;53228;51.380;0.098;2024-01-11T12:38:48;6.80;99.90
66422;DHT22;53228;51.380;0.098;2024-01-11T12:41:23;6.70;99.90
66422;DHT22;53228;51.380;0.098;2024-01-11T12:43:52;6.70;99.90
66422;DHT22;53228;51.380;0.098;2024-01-11T12:46:20;6.70;99.90
66422;DHT22;53228;51.380;0.098;2024-01-11T12:48:49;6.70;99.90
66422;DHT22;53228;51.380;0.098;2024-01-11T12:51:17;6.70;99.90
66422;DHT22;53228;51.380;0.098;2024-01-11T12:53:52;6.70;99.90
66422;DHT22;53228;51.380;0.098;2024-01-11T12:56:21;6.70;99.90
66422;DHT22;53228;51.380;0.098;2024-01-11T12:58:51;6.70;99.90
66422;DHT22;53228;51.380;0.098;2024-01-11T13:01:18;6.80;99.90
66422;DHT22;53228;51.380;0.098;2024-01-11T13:03:47;6.70;99.90
66422;DHT22;53228;51.380;0.098;2024-01-11T13:06:15;6.80;99.90
66422;DHT22;53228;51.380;0.098;2024-01-11T13:08:45;6.80;99.90
66422;DHT22;53228;51.380;0.098;2024-01-11T13:11:13;6.80;99.90
66422;DHT22;53228;51.380;0.098;2024-01-11T13:13:44;6.80;99.90
66422;DHT22;53228;51.380;0.098;2024-01-11T13:16:14;6.80;99.90
66422;DHT22;53228;51.380;0.098;2024-01-11T13:18:43;6.80;99.90
66422;DHT22;53228;51.380;0.098;2024-01-11T13:21:11;6.80;99.90
66422;DHT22;53228;51.380;0.098;2024-01-11T13:23:40;6.80;99.90
66422;DHT22;53228;51.380;0.098;2024-01-11T13:26:08;6.80;99.90
66422;DHT22;53228;51.380;0.098;2024-01-11T13:28:36;6.80;99.90
66422;DHT22;53228;51.380;0.098;2024-01-11T13:31:04;6.80;99.90
66422;DHT22;53228;51.380;0.098;2024-01-11T13:33:32;6.80;99.90
66422;DHT22;53228;51.380;0.098;2024-01-11T13:35:59;6.80;99.90
66422;DHT22;53228;51.380;0.098;2024-01-11T13:38:27;6.80;99.90
66422;DHT22;53228;51.380;0.098;2024-01-11T13:40:55;6.90;99.90
66422;DHT22;53228;51.380;0.098;2024-01-11T13:43:23;6.80;99.90
66422;DHT22;53228;51.380;0.098;2024-01-11T13:45:51;6.90;99.90
66422;DHT22;53228;51.380;0.098;2024-01-11T13:48:19;6.90;99.90
66422;DHT22;53228;51.380;0.098;2024-01-11T13:50:46;6.90;99.90
66422;DHT22;53228;51.380;0.098;2024-01-11T13:53:14;6.90;99.90
66422;DHT22;53228;51.380;0.098;2024-01-11T13:55:42;6.80;99.90
66422;DHT22;53228;51.380;0.098;2024-01-11T13:58:11;6.90;99.90
66422;DHT22;53228;51.380;0.098;2024-01-11T14:00:40;6.90;99.90
66422;DHT22;53228;51.380;0.098;2024-01-11T14:03:07;6.90;99.90
66422;DHT22;53228;51.380;0.098;2024-01-11T14:05:36;6.90;99.90
66422;DHT22;53228;51.380;0.098;2024-01-11T14:08:05;6.90;99.90
66422;DHT22;53228;51.380;0.098;2024-01-11T14:10:36;6.90;99.90
66422;DHT22;53228;51.380;0.098;2024-01-11T14:13:03;6.90;99.90
66422;DHT22;53228;51.380;0.098;2024-01-11T14:15:31;6.90;99.90
66422;DHT22;53228;51.380;0.098;2024-01-11T14:17:59;6.90;99.90
66422;DHT22;53228;51.380;0.098;2024-01-11T14:20:27;6.90;99.90
66422;DHT22;53228;51.380;0.098;2024-01-11T14:22:55;6.90;99.90
66422;DHT22;53228;51.380;0.098;2024-01-11T14:25:23;6.90;99.90
66422;DHT22;53228;51.380;0.098;2024-01-11T14:27:57;6.90;99.90
66422;DHT22;53228;51.380;0.098;2024-01-11T14:30:24;6.90;99.90
66422;DHT22;53228;51.380;0.098;2024-01-11T14:32:53;6.80;99.90
66422;DHT22;53228;51.380;0.098;2024-01-11T14:35:21;6.80;99.90
66422;DHT22;53228;51.380;0.098;2024-01-11T14:37:49;6.80;99.90
66422;DHT22;53228;51.380;0.098;2024-01-11T14:40:16;6.80;99.90
66422;DHT22;53228;51.380;0.098;2024-01-11T14:42:44;6.80;99.90
66422;DHT22;53228;51.380;0.098;2024-01-11T14:45:12;6.80;99.90
66422;DHT22;53228;51.380;0.098;2024-01-11T14:47:40;6.80;99.90
66422;DHT22;53228;51.380;0.098;2024-01-11T14:50:08;6.80;99.90
66422;DHT22;53228;51.380;0.098;2024-01-11T14:52:39;6.80;99.90
66422;DHT22;53228;51.380;0.098;2024-01-11T14:55:07;6.80;99.90
66422;DHT22;53228;51.380;0.098;2024-01-11T14:57:38;6.70;99.90
66422;DHT22;53228;51.380;0.098;2024-01-11T15:00:07;6.70;99.90
66422;DHT22;53228;51.380;0.098;2024-01-11T15:02:36;6.70;99.90
66422;DHT22;53228;51.380;0.098;2024-01-11T15:05:04;6.70;99.90
66422;DHT22;53228;51.380;0.098;2024-01-11T15:07:32;6.70;99.90
66422;DHT22;53228;51.380;0.098;2024-01-11T15:10:00;6.70;99.90
66422;DHT22;53228;51.380;0.098;2024-01-11T15:12:28;6.70;99.90
66422;DHT22;53228;51.380;0.098;2024-01-11T15:14:56;6.70;99.90
66422;DHT22;53228;51.380;0.098;2024-01-11T15:17:24;6.60;99.90
66422;DHT22;53228;51.380;0.098;2024-01-11T15:19:51;6.60;99.90
66422;DHT22;53228;51.380;0.098;2024-01-11T15:22:19;6.60;99.90
66422;DHT22;53228;51.380;0.098;2024-01-11T15:24:47;6.60;99.90
66422;DHT22;53228;51.380;0.098;2024-01-11T15:27:21;6.60;99.90
66422;DHT22;53228;51.380;0.098;2024-01-11T15:29:49;6.60;99.90
66422;DHT22;53228;51.380;0.098;2024-01-11T15:32:18;6.60;99.90
66422;DHT22;53228;51.380;0.098;2024-01-11T15:34:46;6.60;99.90
66422;DHT22;53228;51.380;0.098;2024-01-11T15:37:14;6.60;99.90
66422;DHT22;53228;51.380;0.098;2024-01-11T15:39:42;6.60;99.90
66422;DHT22;53228;51.380;0.098;2024-01-11T15:42:09;6.50;99.90
66422;DHT22;53228;51.380;0.098;2024-01-11T15:44:37;6.60;99.90
66422;DHT22;53228;51.380;0.098;2024-01-11T15:47:06;6.60;99.90
66422;DHT22;53228;51.380;0.098;2024-01-11T15:49:36;6.50;99.90
66422;DHT22;53228;51.380;0.098;2024-01-11T15:52:05;6.60;99.90
66422;DHT22;53228;51.380;0.098;2024-01-11T15:54:32;6.50;99.90
66422;DHT22;53228;51.380;0.098;2024-01-11T15:57:00;6.60;99.90
66422;DHT22;53228;51.380;0.098;2024-01-11T15:59:28;6.50;99.90